Latest Weather Observations for Milingimbi

IDD60801

Issued at 9:31 pm CST Thursday 29 January 2015 (issued every 30 minutes, with the page automatically refreshed every 10 minutes)

About weather observations | Map of weather stations | Latest weather observations for NT | Other Formats
Station Details ID: 014404 Name: MILINGIMBI AIRPORT Lat: -12.09 Lon: 134.89 Height: 15.0 m
Data from the previous 72 hours. | See also: Recent months at Milingimbi
Date/Time
CST
Temp
°C
App
Temp
°C
Dew
Point
Rel
Hum
%
Delta-T
°C
Wind Press
QNH
hPa
Press
MSL
hPa
Rain
since 9 am
mm
Dir
 
Spd
km/h
Gust
km/h
Spd
kts
Gust
kts
29/09:30pm 28.4 33.0 24.8 81 2.5 NNW 9 15 5 8 1007.2 - 0.0
29/09:00pm 28.4 33.3 24.6 80 2.7 NNW 7 13 4 7 1006.9 1006.8 0.0
29/08:30pm 28.7 33.5 25.1 81 2.5 NW 9 15 5 8 1006.9 - 0.0
29/08:00pm 28.8 33.4 24.8 79 2.8 NNW 9 17 5 9 1006.6 - 0.0
29/07:30pm 29.0 33.2 24.8 78 2.9 NNW 11 19 6 10 1006.4 - 0.0
29/07:00pm 29.2 33.3 24.5 76 3.3 NNW 11 19 6 10 1006.0 - 0.0
29/06:30pm 29.5 33.2 23.9 72 3.9 N 11 20 6 11 1005.6 - 0.0
29/06:00pm 29.7 33.4 23.9 71 4.0 NNW 11 22 6 12 1005.1 1005.0 0.0
29/05:30pm 30.7 34.3 24.4 69 4.4 N 13 20 7 11 1004.8 - 0.0
29/05:00pm 30.4 33.5 23.6 67 4.7 N 13 19 7 10 1004.4 - 0.0
29/04:30pm 31.1 34.9 24.7 68 4.5 N 13 19 7 10 1004.1 - 0.0
29/04:00pm 30.7 34.1 24.6 70 4.3 N 15 22 8 12 1003.7 - 0.0
29/03:30pm 31.6 35.4 24.7 67 4.8 NNE 13 20 7 11 1003.7 - 0.0
29/03:00pm 31.6 35.1 24.2 65 5.2 NE 13 20 7 11 1004.0 1003.9 0.0
29/02:30pm 33.8 36.8 21.2 47 8.5 W 7 13 4 7 1004.1 - 0.0
29/02:00pm 33.3 36.4 21.5 50 8.0 W 7 17 4 9 1004.6 - 0.0
29/01:30pm 33.0 36.6 22.1 52 7.4 WSW 6 11 3 6 1004.9 - 0.0
29/01:00pm 32.1 36.1 23.1 59 6.2 W 7 15 4 8 1005.5 - 0.0
29/12:30pm 31.7 34.4 22.1 56 6.5 NW 11 19 6 10 1006.3 - 0.0
29/12:00pm 30.6 34.5 22.5 62 5.5 W 6 11 3 6 1006.7 1006.6 0.0
29/11:30am 29.4 33.0 22.1 65 4.9 WSW 6 11 3 6 1007.1 - 0.0
29/11:00am 28.5 33.0 22.3 69 4.2 E 2 7 1 4 1007.5 - 0.0
29/10:30am 28.3 32.4 22.3 70 4.1 SSE 4 7 2 4 1007.5 - 0.0
29/10:00am 27.6 31.1 21.9 71 3.8 S 6 7 3 4 1007.4 - 0.0
29/09:30am 27.0 30.6 22.4 76 3.1 S 7 11 4 6 1006.9 - 0.0
29/09:00am 26.1 29.5 22.0 78 2.7 SSE 7 11 4 6 1006.6 1006.5 5.2
29/08:30am 25.1 29.6 22.2 84 1.9 SSE 2 6 1 3 1006.4 - 5.2
29/08:00am 24.4 29.0 22.5 89 1.3 NE 2 7 1 4 1006.2 - 5.2
29/07:30am 24.0 27.6 22.1 89 1.3 NW 6 11 3 6 1006.0 - 5.2
29/07:00am 24.0 27.6 22.1 89 1.3 SSW 6 9 3 5 1005.1 - 5.2
29/06:30am 23.8 27.3 22.1 90 1.1 SSW 7 11 4 6 1004.6 - 5.2
29/06:00am 23.8 27.1 21.9 89 1.3 SSW 7 9 4 5 1004.4 1004.3 5.2
29/05:30am 23.7 27.0 21.8 89 1.3 SW 7 13 4 7 1004.2 - 5.2
29/05:00am 23.8 26.7 21.7 88 1.4 SW 9 13 5 7 1004.1 - 5.2
29/04:30am 24.0 26.5 21.7 87 1.5 SW 11 15 6 8 1003.9 - 5.2
29/04:00am 24.0 26.6 21.9 88 1.4 WSW 11 15 6 8 1004.1 - 5.2
29/03:30am 24.2 26.9 22.1 88 1.4 WSW 11 17 6 9 1003.8 - 5.2
29/03:00am 24.0 26.2 21.9 88 1.4 WSW 13 17 7 9 1003.8 1003.7 5.2
29/02:30am 24.1 25.7 22.2 89 1.3 W 17 20 9 11 1004.1 - 5.2
29/02:00am 24.2 26.3 22.5 90 1.1 WSW 15 22 8 12 1004.5 - 5.2
29/01:30am 24.2 26.0 22.5 90 1.1 WSW 17 24 9 13 1005.3 - 5.2
29/01:00am 24.3 26.9 22.6 90 1.1 WSW 13 20 7 11 1005.7 - 5.2
29/12:30am 24.5 26.9 22.9 91 1.1 WSW 15 20 8 11 1006.2 - 5.2
29/12:00am 24.8 27.8 23.4 92 1.0 WSW 13 17 7 9 1006.5 1006.4 5.2
 
Date/Time
CST
Temp
°C
App
Temp
°C
Dew
Point
Rel
Hum
%
Delta-T
°C
Wind Press
QNH
hPa
Press
MSL
hPa
Rain
since 9 am
mm
Dir
 
Spd
km/h
Gust
km/h
Spd
kts
Gust
kts
28/11:30pm 25.0 28.0 23.4 91 1.1 WSW 13 20 7 11 1006.8 - 5.0
28/11:00pm 25.0 28.4 23.4 91 1.1 SSW 11 15 6 8 1007.2 - 5.0
28/10:30pm 25.5 29.5 23.7 90 1.2 WSW 9 13 5 7 1006.6 - 5.0
28/10:00pm 25.9 28.8 23.8 88 1.4 W 15 19 8 10 1006.2 - 4.8
28/09:30pm 26.2 30.7 24.6 91 1.1 W 9 17 5 9 1006.1 - 4.8
28/09:00pm 26.6 31.6 24.8 90 1.3 W 7 11 4 6 1005.7 1005.6 4.8
28/08:30pm 26.0 31.8 24.0 89 1.4 CALM 0 0 0 0 1005.0 - 4.8
28/08:00pm 25.6 31.2 23.6 89 1.4 CALM 0 0 0 0 1004.6 - 4.8
28/07:30pm 25.6 30.0 23.5 88 1.4 NE 6 9 3 5 1004.5 - 4.8
28/07:00pm 25.6 29.3 22.5 83 2.1 E 7 11 4 6 1004.3 - 4.8
28/06:30pm 25.6 29.9 23.6 89 1.4 ENE 7 13 4 7 1004.1 - 4.8
28/06:00pm 25.7 27.8 23.7 89 1.4 SSE 19 30 10 16 1004.2 1004.1 1.6
28/05:30pm 28.3 28.1 20.6 63 5.1 S 22 32 12 17 1003.3 - 0.0
28/05:00pm 30.6 34.7 24.0 68 4.6 N 9 15 5 8 1002.2 - 0.0
28/04:30pm 30.9 35.1 24.8 70 4.3 N 11 20 6 11 1001.5 - 0.0
28/04:00pm 31.5 35.1 24.4 66 5.0 N 13 20 7 11 1001.6 - 0.0
28/03:30pm 31.7 35.6 24.3 65 5.2 N 11 17 6 9 1001.8 - 0.0
28/03:00pm 31.4 34.9 24.8 68 4.7 NNW 15 26 8 14 1002.6 1002.5 0.0
28/02:30pm 31.6 35.2 25.0 68 4.7 N 15 20 8 11 1003.2 - 0.0
28/02:00pm 31.0 34.7 24.6 68 4.5 N 13 22 7 12 1003.4 - 0.0
28/01:30pm 31.3 35.3 24.4 66 4.8 N 11 19 6 10 1003.5 - 0.0
28/01:00pm 31.1 34.8 24.5 68 4.6 NNW 13 20 7 11 1003.7 - 0.0
28/12:30pm 30.8 34.4 24.4 68 4.5 N 13 20 7 11 1004.1 - 0.0
28/12:00pm 31.1 35.0 24.2 66 4.8 N 11 20 6 11 1004.3 1004.2 0.0
28/11:30am 32.7 36.8 23.3 57 6.5 NNE 7 11 4 6 1004.6 - 0.0
28/11:00am 31.4 34.8 22.7 60 6.0 SSW 9 13 5 7 1005.0 - 0.0
28/10:30am 31.0 35.5 23.9 66 4.9 S 7 13 4 7 1005.2 - 0.0
28/10:00am 29.9 33.9 23.8 70 4.2 S 9 15 5 8 1005.0 - 0.0
28/09:30am 28.9 32.8 23.6 73 3.7 S 9 15 5 8 1005.0 - 0.0
28/09:00am 28.4 31.9 23.5 75 3.4 SSW 11 15 6 8 1005.1 1005.0 0.0
28/08:30am 27.8 32.3 24.0 80 2.6 SSW 7 9 4 5 1005.0 - 0.0
28/08:00am 27.1 31.9 24.2 84 2.0 SSE 6 9 3 5 1004.8 - 0.0
28/07:30am 26.4 32.3 24.1 87 1.6 CALM 0 0 0 0 1004.7 - 0.0
28/07:00am 26.0 31.8 23.9 88 1.4 CALM 0 0 0 0 1004.5 - 0.0
28/06:30am 25.9 30.5 23.8 88 1.4 SSE 6 7 3 4 1003.9 - 0.0
28/06:00am 26.0 31.8 23.9 88 1.4 CALM 0 0 0 0 1003.8 1003.7 0.0
28/05:30am 26.3 30.9 23.8 86 1.7 SW 6 9 3 5 1003.0 - 0.0
28/05:00am 26.4 32.2 23.9 86 1.7 CALM 0 0 0 0 1002.8 - 0.0
28/04:30am 26.6 31.3 23.9 85 1.9 WSW 6 7 3 4 1002.7 - 0.0
28/04:00am 26.8 31.4 24.1 85 1.9 WSW 7 11 4 6 1002.9 - 0.0
28/03:30am 26.9 31.2 24.2 85 1.9 WSW 9 13 5 7 1003.3 - 0.0
28/03:00am 27.0 31.2 24.1 84 2.0 WSW 9 11 5 6 1003.4 1003.3 0.0
28/02:30am 27.2 31.1 24.3 84 2.0 WSW 11 15 6 8 1003.6 - 0.0
28/02:00am 27.5 30.6 24.1 82 2.3 W 15 24 8 13 1004.1 - 0.0
28/01:30am 27.6 31.1 24.2 82 2.4 W 13 17 7 9 1004.3 - 0.0
28/01:00am 27.8 31.7 24.2 81 2.5 W 11 17 6 9 1004.9 - 0.0
28/12:30am 28.1 31.7 24.3 80 2.6 W 13 20 7 11 1005.0 - 0.0
28/12:00am 28.3 31.6 24.5 80 2.7 W 15 22 8 12 1005.4 1005.3 0.0
 
Date/Time
CST
Temp
°C
App
Temp
°C
Dew
Point
Rel
Hum
%
Delta-T
°C
Wind Press
QNH
hPa
Press
MSL
hPa
Rain
since 9 am
mm
Dir
 
Spd
km/h
Gust
km/h
Spd
kts
Gust
kts
27/11:30pm 28.2 31.6 24.6 81 2.5 W 15 19 8 10 1005.7 - 0.0
27/11:00pm 27.9 31.7 24.7 83 2.2 W 13 17 7 9 1006.0 - 0.0
27/10:30pm 27.5 31.9 24.5 84 2.1 W 9 11 5 6 1006.0 - 0.0
27/10:00pm 27.2 32.0 24.1 83 2.1 W 6 9 3 5 1005.7 - 0.0
27/09:30pm 26.9 31.3 23.8 83 2.1 WSW 7 11 4 6 1005.3 - 0.0
27/09:00pm 27.3 31.1 23.5 80 2.6 W 9 11 5 6 1005.0 1004.9 0.0
27/08:30pm 27.7 31.4 23.3 77 3.0 W 9 13 5 7 1004.7 - 0.0
27/08:00pm 28.3 31.9 23.7 76 3.2 W 11 17 6 9 1004.5 - 0.0
27/07:30pm 29.1 32.8 23.3 71 4.0 WSW 9 11 5 6 1004.2 - 0.0
27/07:00pm 29.5 33.9 25.7 80 2.7 WNW 13 20 7 11 1003.7 - 0.0
27/06:30pm 29.7 32.8 25.4 78 3.0 WNW 19 30 10 16 1003.2 - 0.0
27/06:00pm 29.8 31.8 25.1 76 3.3 WNW 24 39 13 21 1003.4 1003.3 0.0
27/05:30pm 31.1 32.4 25.2 71 4.2 W 28 35 15 19 1002.7 - 0.0
27/05:00pm 31.4 34.6 25.5 71 4.2 NW 19 30 10 16 1002.4 - 0.0
27/04:30pm 32.5 36.6 25.8 68 4.8 NW 15 26 8 14 1002.4 - 0.0
27/04:00pm 31.4 34.6 25.0 69 4.5 NW 17 26 9 14 1002.2 - 0.0
27/03:30pm 31.5 34.3 24.9 68 4.6 NW 19 32 10 17 1002.7 - 0.0
27/03:00pm 31.7 35.4 25.8 71 4.2 NNW 17 30 9 16 1003.0 1002.9 0.0
27/02:30pm 31.6 35.2 25.0 68 4.7 NNW 15 24 8 13 1003.4 - 0.0
27/02:00pm 31.6 35.2 25.0 68 4.7 NNW 15 24 8 13 1004.0 - 0.0
27/01:30pm 31.7 34.7 25.3 69 4.5 NNW 19 26 10 14 1004.4 - 0.0
27/01:00pm 32.1 35.6 24.2 63 5.5 WNW 13 20 7 11 1004.9 - 0.0
27/12:30pm 32.7 36.6 24.2 61 5.9 W 11 24 6 13 1005.4 - 0.0
27/12:00pm 31.6 34.4 23.7 63 5.5 W 15 24 8 13 1005.8 1005.7 0.0
27/11:30am 31.7 34.2 24.8 67 4.9 W 20 30 11 16 1006.1 - 0.0
27/11:00am 31.3 33.7 24.2 66 5.0 WNW 19 26 10 14 1006.7 - 0.0
27/10:30am 30.8 34.0 24.4 68 4.5 W 15 24 8 13 1007.1 - 0.0
27/10:00am 30.2 34.3 24.6 72 3.9 WSW 11 20 6 11 1007.4 - 0.0
27/09:30am 29.1 32.5 24.0 74 3.5 WSW 13 20 7 11 1007.7 - 0.0
27/09:00am 28.5 32.2 24.5 79 2.8 W 13 20 7 11 1008.0 1007.9 2.2
27/08:30am 27.6 32.0 24.4 83 2.2 WSW 9 13 5 7 1008.0 - 2.2
27/08:00am 27.3 31.8 24.6 85 1.9 W 9 13 5 7 1007.7 - 2.2
27/07:30am 26.8 31.3 24.6 88 1.5 W 9 11 5 6 1007.1 - 2.2
27/07:00am 26.4 31.2 24.4 89 1.4 W 7 11 4 6 1006.6 - 2.2
27/06:30am 26.4 30.8 24.4 89 1.4 W 9 13 5 7 1006.6 - 2.2
27/06:00am 26.4 31.2 24.4 89 1.4 W 7 9 4 5 1006.3 1006.2 2.2
27/05:30am 26.6 30.9 24.3 87 1.6 SW 9 13 5 7 1006.4 - 2.2
27/05:00am 26.7 30.7 24.4 87 1.6 WSW 11 17 6 9 1006.1 - 2.2
27/04:30am 26.8 31.2 24.5 87 1.6 WSW 9 13 5 7 1005.9 - 2.2
27/04:00am 27.0 31.4 24.5 86 1.7 WSW 9 15 5 8 1006.0 - 2.2
27/03:30am 27.2 31.1 24.3 84 2.0 WSW 11 17 6 9 1005.7 - 2.2
27/03:00am 27.3 31.5 24.7 86 1.8 W 11 15 6 8 1005.2 1005.1 2.2
27/02:30am 27.4 31.2 24.7 85 1.9 WSW 13 20 7 11 1005.8 - 2.2
27/02:00am 27.4 32.8 25.4 89 1.4 WSW 7 9 4 5 1006.1 - 2.2
27/01:30am 27.4 32.7 25.8 91 1.1 W 9 13 5 7 1006.3 - 2.2
27/01:00am 27.2 32.3 25.6 91 1.1 W 9 13 5 7 1006.5 - 2.2
27/12:30am 26.7 31.1 25.1 91 1.1 NW 11 13 6 7 1007.0 - 2.2
27/12:00am 27.2 29.9 25.0 88 1.5 WNW 20 30 11 16 1007.5 1007.4 2.2
 
Date/Time
CST
Temp
°C
App
Temp
°C
Dew
Point
Rel
Hum
%
Delta-T
°C
Wind Press
QNH
hPa
Press
MSL
hPa
Rain
since 9 am
mm
Dir
 
Spd
km/h
Gust
km/h
Spd
kts
Gust
kts
26/11:30pm 28.5 32.3 24.7 80 2.7 WNW 13 20 7 11 1007.8 - 0.2
26/11:00pm 28.6 32.0 24.6 79 2.8 WNW 15 24 8 13 1007.8 - 0.2
26/10:30pm 28.5 31.2 24.7 80 2.7 WNW 19 24 10 13 1007.8 - 0.2
26/10:00pm 28.4 31.6 24.4 79 2.8 WNW 15 20 8 11 1007.4 - 0.2

Other Formats:

Comma delimited format used in spreadsheet applications
http://www.bom.gov.au/fwo/IDD60801/IDD60801.94140.axf

JavaScript Object Notation format (JSON) in row-major order
http://www.bom.gov.au/fwo/IDD60801/IDD60801.94140.json